Time;durP1;ratioP1;P1;durP2;ratioP2;P2;SDS_P1;SDS_P2;PMS_P1;PMS_P2;Temp;Humidity;BMP_temperature;BMP_pressure;BME280_temperature;BME280_humidity;BME280_pressure;Samples;Min_cycle;Max_cycle;Signal;HPM_P1;HPM_P2
2023/04/27 17:57:30;;;;;;;15.10;2.70;;;35.00;36.70;;;;;;5088773;27;20487;-62
2023/04/27 17:59:57;;;;;;;8.93;2.55;;;35.20;24.30;;;;;;5086327;28;20057;-63
2023/04/27 18:02:23;;;;;;;15.20;2.25;;;35.50;24.10;;;;;;5085990;28;20035;-63
2023/04/27 18:04:50;;;;;;;8.70;2.20;;;35.90;24.40;;;;;;5087267;28;20024;-63
2023/04/27 18:07:18;;;;;;;13.73;1.90;;;36.10;23.30;;;;;;5085319;28;20052;-64
2023/04/27 18:09:44;;;;;;;7.28;2.10;;;36.20;22.70;;;;;;5085403;28;20031;-63
2023/04/27 18:12:10;;;;;;;16.50;2.35;;;36.00;23.10;;;;;;5084500;28;20024;-62
2023/04/27 18:14:37;;;;;;;10.75;1.98;;;36.00;23.90;;;;;;5085564;28;20104;-64
2023/04/27 18:17:04;;;;;;;8.20;1.98;;;36.10;24.20;;;;;;5085152;28;20052;-64
2023/04/27 18:19:30;;;;;;;12.60;1.90;;;36.20;24.10;;;;;;5084661;28;20066;-63
2023/04/27 18:21:57;;;;;;;18.20;2.20;;;36.30;24.40;;;;;;5084463;28;20024;-64
2023/04/27 18:24:23;;;;;;;6.10;1.73;;;36.50;23.30;;;;;;5083513;28;20477;-63
2023/04/27 18:26:50;;;;;;;11.88;2.20;;;36.50;22.50;;;;;;5086401;28;20078;-62
2023/04/27 18:29:16;;;;;;;9.77;1.95;;;36.30;23.60;;;;;;5084980;28;20034;-63
2023/04/27 18:31:43;;;;;;;6.40;2.20;;;36.70;23.80;;;;;;5085661;28;20385;-62
2023/04/27 18:34:09;;;;;;;11.73;2.40;;;36.80;22.50;;;;;;5088441;28;20032;-62
2023/04/27 18:36:35;;;;;;;8.55;1.80;;;37.10;22.10;;;;;;5085642;28;20082;-63
2023/04/27 18:39:02;;;;;;;4.97;1.33;;;36.90;20.80;;;;;;5085032;28;20051;-63
2023/04/27 18:41:29;;;;;;;7.72;1.33;;;37.00;20.80;;;;;;5083174;28;20012;-60
2023/04/27 18:44:05;;;;;;;3.90;1.50;;;37.10;19.80;;;;;;5084175;28;20414;-62
2023/04/27 18:46:32;;;;;;;2.35;1.02;;;37.20;20.20;;;;;;5084339;28;20040;-62
2023/04/27 18:48:59;;;;;;;5.00;1.00;;;37.30;19.50;;;;;;5085041;28;20544;-63
2023/04/27 18:51:25;;;;;;;4.70;1.20;;;37.30;19.80;;;;;;5086141;28;20111;-64
2023/04/27 18:53:52;;;;;;;3.33;1.30;;;37.40;19.60;;;;;;5084963;28;20020;-61
2023/04/27 18:56:19;;;;;;;5.10;1.02;;;37.50;20.40;;;;;;5084778;28;20043;-61
2023/04/27 18:58:47;;;;;;;11.57;1.27;;;37.80;20.70;;;;;;5083808;28;20074;-63
2023/04/27 19:01:28;;;;;;;6.80;1.48;;;37.80;20.30;;;;;;5091917;28;20426;-63
2023/04/27 19:03:56;;;;;;;6.93;1.38;;;37.70;21.00;;;;;;5083813;28;20024;-62
2023/04/27 19:06:23;;;;;;;7.40;1.40;;;37.80;20.90;;;;;;5081823;28;20024;-61
2023/04/27 19:08:49;;;;;;;7.40;1.45;;;37.80;21.20;;;;;;5070518;28;20032;-62
2023/04/27 19:11:20;;;;;;;7.40;1.40;;;38.10;21.50;;;;;;5073471;28;20032;-63
2023/04/27 19:13:47;;;;;;;3.47;1.15;;;38.40;21.20;;;;;;5076930;28;20035;-64
2023/04/27 19:16:14;;;;;;;5.18;1.50;;;38.50;21.30;;;;;;5078077;28;20054;-64
2023/04/27 19:18:40;;;;;;;2.13;1.10;;;38.40;21.70;;;;;;5078626;28;20111;-64
2023/04/27 19:21:07;;;;;;;6.90;1.15;;;38.30;21.10;;;;;;5072092;28;20024;-64
2023/04/27 19:23:33;;;;;;;5.90;1.20;;;38.40;21.10;;;;;;5070584;28;20426;-64
2023/04/27 19:25:59;;;;;;;2.35;1.20;;;38.70;20.90;;;;;;5073384;28;20028;-64
2023/04/27 19:28:26;;;;;;;6.80;1.15;;;38.90;20.60;;;;;;5072512;28;20032;-64
2023/04/27 19:30:52;;;;;;;1.98;0.90;;;39.10;19.70;;;;;;5075929;28;20064;-65
2023/04/27 19:33:19;;;;;;;7.07;1.50;;;39.10;19.00;;;;;;5075378;28;20028;-64
2023/04/27 19:35:46;;;;;;;7.18;1.33;;;39.00;19.60;;;;;;5071482;28;20029;-64
2023/04/27 19:38:12;;;;;;;3.20;0.80;;;39.10;19.20;;;;;;5071163;28;20028;-63
2023/04/27 19:40:39;;;;;;;3.22;1.13;;;39.30;18.20;;;;;;5077979;28;20043;-64
2023/04/27 19:43:05;;;;;;;3.45;1.20;;;39.50;18.70;;;;;;5074013;28;20095;-62
2023/04/27 19:45:32;;;;;;;3.00;1.08;;;39.50;18.00;;;;;;5070574;28;20032;-62
2023/04/27 19:47:59;;;;;;;8.55;1.50;;;39.30;17.20;;;;;;5073970;28;20031;-62
2023/04/27 19:50:26;;;;;;;5.20;1.00;;;38.80;16.60;;;;;;5079179;28;20030;-63
2023/04/27 19:52:52;;;;;;;5.97;1.10;;;38.50;17.50;;;;;;5068020;28;20056;-59
2023/04/27 19:55:18;;;;;;;4.97;1.00;;;38.50;18.60;;;;;;5071113;28;20036;-61
2023/04/27 19:57:45;;;;;;;4.53;1.10;;;38.50;18.80;;;;;;5068813;28;20025;-62
2023/04/27 20:00:12;;;;;;;3.13;0.90;;;38.70;18.60;;;;;;5072337;28;20020;-61
2023/04/27 20:02:38;;;;;;;2.55;1.00;;;38.60;18.90;;;;;;5068570;28;20025;-63
2023/04/27 20:05:05;;;;;;;5.88;1.30;;;38.80;18.40;;;;;;5069804;28;20025;-61
2023/04/27 20:07:31;;;;;;;4.80;1.20;;;38.70;18.50;;;;;;5071225;28;20545;-60
2023/04/27 20:09:58;;;;;;;4.13;0.90;;;38.70;19.20;;;;;;5070137;28;20388;-60
2023/04/27 20:12:25;;;;;;;7.97;1.20;;;39.10;19.40;;;;;;5068064;28;20032;-61
2023/04/27 20:14:51;;;;;;;6.50;1.30;;;39.30;18.80;;;;;;5069397;28;20020;-60
2023/04/27 20:17:19;;;;;;;8.00;1.13;;;39.30;18.50;;;;;;5068514;28;20496;-62
2023/04/27 20:19:45;;;;;;;3.83;0.98;;;39.30;17.80;;;;;;5067520;28;20033;-63
2023/04/27 20:22:12;;;;;;;1.23;0.70;;;39.40;16.20;;;;;;5067981;28;20020;-61
2023/04/27 20:24:38;;;;;;;1.15;0.60;;;39.40;16.90;;;;;;5067169;28;20024;-63
2023/04/27 20:27:05;;;;;;;4.75;0.73;;;39.50;17.20;;;;;;5068792;28;20031;-61
2023/04/27 20:29:32;;;;;;;2.63;1.00;;;39.40;16.10;;;;;;5067532;28;20028;-60
2023/04/27 20:31:58;;;;;;;2.72;0.95;;;39.50;17.30;;;;;;5070670;28;20048;-61
2023/04/27 20:34:25;;;;;;;5.00;1.00;;;39.60;16.50;;;;;;5073893;28;20388;-60
2023/04/27 20:36:51;;;;;;;4.63;1.00;;;39.80;16.80;;;;;;5072366;28;20078;-61
2023/04/27 20:39:19;;;;;;;2.72;0.80;;;39.90;16.90;;;;;;5071381;28;20020;-63
2023/04/27 20:41:46;;;;;;;4.22;1.00;;;40.00;16.70;;;;;;5079842;28;20039;-63
2023/04/27 20:44:12;;;;;;;12.40;1.27;;;39.70;16.40;;;;;;5073687;28;20094;-62
2023/04/27 20:46:39;;;;;;;2.90;0.98;;;39.50;16.30;;;;;;5078180;28;20030;-61
2023/04/27 20:49:05;;;;;;;4.28;1.00;;;39.50;16.70;;;;;;5077868;28;20024;-63
2023/04/27 20:51:32;;;;;;;4.55;0.82;;;39.10;16.50;;;;;;5068885;28;20107;-60
2023/04/27 20:53:59;;;;;;;4.15;1.10;;;39.20;17.40;;;;;;5065972;28;20031;-62
2023/04/27 20:56:26;;;;;;;4.00;1.13;;;39.60;17.30;;;;;;5072053;28;20040;-60
2023/04/27 20:58:52;;;;;;;3.83;0.90;;;39.50;17.10;;;;;;5068413;28;20384;-65
2023/04/27 21:01:19;;;;;;;6.47;1.00;;;39.70;17.00;;;;;;5068015;28;20024;-64
2023/04/27 21:03:45;;;;;;;2.10;0.75;;;39.80;17.10;;;;;;5075753;28;20021;-64
2023/04/27 21:06:12;;;;;;;6.45;1.00;;;39.60;16.30;;;;;;5067056;28;20388;-64
2023/04/27 21:08:38;;;;;;;2.20;0.70;;;39.50;15.90;;;;;;5067121;28;20028;-63
2023/04/27 21:11:05;;;;;;;5.10;1.02;;;39.50;15.20;;;;;;5073111;28;20024;-62
2023/04/27 21:13:31;;;;;;;4.65;1.05;;;39.50;14.80;;;;;;5072935;28;20024;-62
2023/04/27 21:15:58;;;;;;;4.97;1.10;;;39.40;15.00;;;;;;5067319;28;20439;-62
2023/04/27 21:18:24;;;;;;;15.93;2.40;;;39.50;15.70;;;;;;5073578;28;20062;-61
2023/04/27 21:20:50;;;;;;;5.95;0.90;;;39.70;15.60;;;;;;5067828;28;20024;-62
2023/04/27 21:23:18;;;;;;;1.98;1.10;;;39.60;15.50;;;;;;5066804;28;20102;-62
2023/04/27 21:25:45;;;;;;;7.22;1.30;;;39.50;15.00;;;;;;5068135;28;20024;-63
2023/04/27 21:28:12;;;;;;;4.03;1.02;;;39.30;16.10;;;;;;5068113;28;21476;-62
2023/04/27 21:30:40;;;;;;;2.63;0.93;;;39.40;15.70;;;;;;5068764;28;20396;-64
2023/04/27 21:33:06;;;;;;;1.70;0.80;;;39.70;15.90;;;;;;5068496;28;20032;-63
2023/04/27 21:35:33;;;;;;;3.95;0.80;;;39.70;15.70;;;;;;5072434;28;20032;-65
2023/04/27 21:37:59;;;;;;;2.85;1.00;;;39.40;16.00;;;;;;5075748;28;20016;-62
2023/04/27 21:40:26;;;;;;;3.50;0.77;;;39.20;16.00;;;;;;5070097;28;20024;-63
2023/04/27 21:42:53;;;;;;;2.25;1.38;;;39.20;16.20;;;;;;5072271;28;20176;-62
2023/04/27 21:45:20;;;;;;;8.63;1.02;;;39.40;16.70;;;;;;5083961;28;20052;-63
2023/04/27 21:47:47;;;;;;;9.00;2.55;;;39.40;16.60;;;;;;5068791;28;20098;-65
2023/04/27 21:50:13;;;;;;;5.20;1.50;;;39.40;16.80;;;;;;5066910;28;20040;-62
2023/04/27 21:52:39;;;;;;;7.85;1.20;;;39.40;17.10;;;;;;5067728;28;20045;-65
2023/04/27 21:55:06;;;;;;;9.68;1.40;;;39.30;17.10;;;;;;5074263;28;20075;-64
2023/04/27 21:57:32;;;;;;;2.20;1.15;;;39.30;17.80;;;;;;5074429;28;20020;-64
2023/04/27 21:59:59;;;;;;;4.55;1.20;;;39.40;17.30;;;;;;5077468;28;20027;-63
2023/04/27 22:02:28;;;;;;;4.30;1.10;;;39.40;17.40;;;;;;5075021;28;20074;-66
2023/04/27 22:04:55;;;;;;;3.30;1.27;;;39.40;17.90;;;;;;5073837;28;20052;-64
2023/04/27 22:07:23;;;;;;;3.35;1.45;;;39.40;17.60;;;;;;5071148;28;20024;-63
2023/04/27 22:09:49;;;;;;;5.97;1.17;;;39.50;17.50;;;;;;5072195;28;20028;-64
2023/04/27 22:12:16;;;;;;;6.55;2.17;;;39.50;17.20;;;;;;5068576;28;20024;-65
2023/04/27 22:14:42;;;;;;;3.10;1.17;;;39.60;16.00;;;;;;5066359;28;21411;-64
2023/04/27 22:17:11;;;;;;;9.40;1.30;;;39.40;15.40;;;;;;5064298;28;20032;-68
2023/04/27 22:19:37;;;;;;;4.53;1.33;;;39.40;15.00;;;;;;5062319;28;20384;-68
2023/04/27 22:22:04;;;;;;;7.53;1.20;;;39.30;15.60;;;;;;5068572;28;20020;-65
2023/04/27 22:24:30;;;;;;;2.10;1.00;;;39.10;15.70;;;;;;5066654;28;20026;-66
2023/04/27 22:26:56;;;;;;;9.55;1.48;;;39.10;14.40;;;;;;5064162;28;20536;-65
2023/04/27 22:29:23;;;;;;;6.05;1.35;;;39.10;15.40;;;;;;5063359;28;20180;-63
2023/04/27 22:31:50;;;;;;;3.03;0.90;;;39.10;15.30;;;;;;5068951;28;20095;-67
2023/04/27 22:34:17;;;;;;;11.18;2.28;;;38.90;15.80;;;;;;5066008;28;20051;-64
2023/04/27 22:36:43;;;;;;;9.35;1.52;;;39.00;15.30;;;;;;5061775;28;20037;-63
2023/04/27 22:39:10;;;;;;;5.65;0.95;;;38.90;15.10;;;;;;5068729;28;20025;-65
2023/04/27 22:41:36;;;;;;;15.93;2.28;;;38.80;16.00;;;;;;5065799;28;20092;-64
2023/04/27 22:44:02;;;;;;;5.40;1.30;;;38.70;15.90;;;;;;5070052;28;20381;-64
2023/04/27 22:46:29;;;;;;;5.80;1.17;;;38.80;16.30;;;;;;5069618;28;20043;-66
2023/04/27 22:48:57;;;;;;;4.47;1.15;;;38.90;16.20;;;;;;5071029;28;20025;-64
2023/04/27 22:51:26;;;;;;;38.35;4.40;;;38.90;16.10;;;;;;5064874;28;20042;-65
2023/04/27 22:53:53;;;;;;;15.38;2.75;;;38.90;16.10;;;;;;5070850;28;20040;-66
2023/04/27 22:56:21;;;;;;;5.20;1.40;;;39.00;16.70;;;;;;5075502;28;20151;-64
2023/04/27 22:58:47;;;;;;;4.30;1.38;;;39.10;17.00;;;;;;5068494;28;20580;-63
2023/04/27 23:01:14;;;;;;;3.53;1.05;;;39.20;17.60;;;;;;5071350;28;20013;-63
2023/04/27 23:03:42;;;;;;;5.55;1.40;;;39.00;17.70;;;;;;5073115;28;20030;-64
2023/04/27 23:06:13;;;;;;;4.43;0.90;;;38.80;17.50;;;;;;5072217;28;20024;-65
2023/04/27 23:08:45;;;;;;;8.73;1.73;;;38.70;17.80;;;;;;5068795;28;20024;-65
2023/04/27 23:11:14;;;;;;;3.55;1.10;;;38.60;16.60;;;;;;5075414;28;20027;-62
2023/04/27 23:13:40;;;;;;;3.80;0.82;;;38.70;16.80;;;;;;5073484;28;20032;-66
2023/04/27 23:16:08;;;;;;;3.03;1.00;;;38.70;16.80;;;;;;5070392;28;20028;-64
2023/04/27 23:18:34;;;;;;;4.68;1.00;;;38.60;16.20;;;;;;5070147;28;20013;-62
2023/04/27 23:21:01;;;;;;;9.57;1.80;;;38.50;16.60;;;;;;5071160;28;20086;-63
2023/04/27 23:23:27;;;;;;;5.13;1.17;;;38.40;17.10;;;;;;5069554;28;20086;-61
2023/04/27 23:25:54;;;;;;;5.28;1.20;;;38.40;17.00;;;;;;5067209;28;20029;-65
2023/04/27 23:28:21;;;;;;;6.90;1.60;;;38.30;17.00;;;;;;5066774;28;20486;-64
2023/04/27 23:30:54;;;;;;;3.35;0.90;;;38.30;17.20;;;;;;5068097;28;20020;-63
2023/04/27 23:33:21;;;;;;;4.75;1.35;;;38.20;17.20;;;;;;5068178;28;20024;-64
2023/04/27 23:35:48;;;;;;;5.45;1.13;;;38.10;16.90;;;;;;5067659;28;20029;-65
2023/04/27 23:38:14;;;;;;;7.85;1.13;;;38.10;17.00;;;;;;5066254;28;20028;-64
2023/04/27 23:40:40;;;;;;;4.22;1.67;;;38.10;17.10;;;;;;5066424;28;20028;-65
2023/04/27 23:43:07;;;;;;;8.02;2.33;;;38.10;17.30;;;;;;5065049;28;20025;-62
2023/04/27 23:45:33;;;;;;;8.63;1.70;;;38.10;17.10;;;;;;5064959;28;20881;-64
2023/04/27 23:47:59;;;;;;;10.30;2.08;;;37.90;16.60;;;;;;5066010;28;20036;-63
2023/04/27 23:50:26;;;;;;;2.72;1.05;;;37.80;17.40;;;;;;5064107;28;20025;-66
2023/04/27 23:52:52;;;;;;;7.05;1.20;;;37.80;17.80;;;;;;5062569;28;20023;-63
2023/04/27 23:55:19;;;;;;;5.80;1.17;;;37.70;17.20;;;;;;5066607;28;20031;-64
2023/04/27 23:57:45;;;;;;;3.53;1.05;;;37.50;17.00;;;;;;5063790;28;20020;-63
